TFM - Tactical Decision Aid (Experimental) INFO Settings

ID: Runway Winds: CIG/VIS Threshold: METAR Board: Map:

kiad - Washington-Dulles Intl

Updated at: 1000 UTC 29 May 2015
Latest TAF at: 0854 UTC 29 May 2015

TAF Board

Time0952Z29/10Z29/11Z29/12Z29/13Z29/14Z29/15Z29/16Z29/17Z29/18Z29/19Z29/20Z29/21Z29/22Z
TypeOBSPRVL
  [TEMP]  
PRVL
  [TEMP]  
PRVLPRVLPRVLPRVLPRVLPRVLPRVLPRVLPRVLPRVLPRVL
VIS10>6
  [5]  
>6
  [5]  
>6>6>6>6>6>6>6>6>6>6>6
CIG----
  [--]  
--
  [--]  
----------100100100404040
CoverSCTSCT
  [SCT]  
SCT
  [SCT]  
SCTSCTSCTSCTSCTBKNBKNBKNBKNBKNBKN
FltCatVFRVFR
  [MVFR]  
VFR
  [MVFR]  
VFRVFRVFRVFRVFRVFRVFRVFRVFRVFRVFR
WX----
  [BR]  
--
  [BR]  
----------------VCTSVCTSVCTS
WDir3030
[30]
30
[30]
8080808080130130130150150150
WSpd36
  [6]  
6
  [6]  
66666777888
WGst----
  [--]  
--
  [--]  
----------------------
TAF
KIAD 290854Z 2909/3012 03006KT P6SM SCT030 SCT100
  TEMPO 2910/2912 5SM BR
  FM291200 08006KT P6SM SCT040 SCT100
  FM291700 13007KT P6SM SCT040 BKN100
  FM292000 15008KT P6SM VCTS BKN040CB
  FM300100 VRB05KT P6SM SCT050


METAR
KIAD 290952Z 03003KT 10SM FEW055 SCT110 21/19 A3022 RMK AO2 SLP232 T02110194
KIAD 290852Z 07006KT 10SM FEW110 21/19 A3021 RMK AO2 SLP228 T02110194 53000

TAF/METAR Board Legend

Potential Impact
  None Marginal Slight Moderate High
Visibility (sm) > ≤X≤ <
Ceiling (100 ft) > ≤X≤ <
Wind Speed (kt) <10 10≤X<20 20≤X<30 ≥30
Wind Gust (kt) <15 15≤X<25 25≤X<35 ≥35
Weather No Wx Reported VCTS -TS,-FZRA TS,FZRA +TS,+FZRA




Notice: Undefined index: kiad in /caws/site/new_awc/application/modules/trafficflowmgmt/controllers/TdaController.php on line 188

Notice: Undefined index: kiad in /caws/site/new_awc/application/modules/trafficflowmgmt/controllers/TdaController.php on line 189